Time;durP1;ratioP1;P1;durP2;ratioP2;P2;SDS_P1;SDS_P2;PMS_P1;PMS_P2;Temp;Humidity;BMP_temperature;BMP_pressure;BME280_temperature;BME280_humidity;BME280_pressure;Samples;Min_cycle;Max_cycle;Signal;HPM_P1;HPM_P2
2021/12/27 01:09:13;;;;;;;;;;;;;;;;;;;;;
2021/12/27 01:15:45;;;;;;;;;;;;;;;;;;;;;
2021/12/27 01:18:10;;;;;;;;;2.00;2.00;;;;;11.49;77.54;99706.34;5062946;28;45517;-96
2021/12/27 01:20:51;;;;;;;;;2.00;2.00;;;;;11.21;78.11;99660.13;5053717;28;45431;-95
2021/12/27 01:23:27;;;;;;;;;3.00;1.33;;;;;11.50;78.02;99704.63;5053009;28;45634;-95
2021/12/27 01:26:12;;;;;;;;;2.33;1.33;;;;;11.50;78.13;99696.72;5053012;28;47916;-96
2021/12/27 01:28:46;;;;;;;;;2.33;2.00;;;;;11.36;77.76;99667.50;5056875;28;45845;-95
2021/12/27 01:31:14;;;;;;;;;3.00;2.00;;;;;11.51;78.15;99690.63;5054131;28;46980;-95
2021/12/27 01:33:45;;;;;;;;;2.00;1.67;;;;;11.51;77.95;99691.53;5059444;27;45602;-96
2021/12/27 01:36:31;;;;;;;;;2.00;2.00;;;;;11.39;77.74;99662.34;5071035;27;47122;-96
2021/12/27 01:39:02;;;;;;;;;2.00;1.00;;;;;11.33;77.72;99654.28;5052716;27;45525;-96
2021/12/27 01:42:15;;;;;;;;;1.00;0.00;;;;;11.26;77.82;99648.88;5072895;27;45460;-95
2021/12/27 01:48:23;;;;;;;;;1.00;1.00;;;;;11.46;77.55;99672.13;5092517;27;45590;-96
2021/12/27 01:51:02;;;;;;;;;2.00;1.33;;;;;11.30;77.82;99652.47;5094175;27;45612;-96
2021/12/27 01:53:41;;;;;;;;;2.00;2.00;;;;;11.35;77.39;99645.59;5111960;27;45513;-96
2021/12/27 01:56:57;;;;;;;;;;;;;;;;;;;;;
2021/12/27 01:59:29;;;;;;;;;4.00;3.00;;;;;11.42;77.61;99666.75;5112126;27;74194;-96
2021/12/27 02:02:22;;;;;;;;;;;;;;;;;;;;;
2021/12/27 02:08:38;;;;;;;;;2.00;2.00;;;;;11.43;77.68;99679.03;5124623;27;45450;-96
2021/12/27 02:11:51;;;;;;;;;;;;;;;;;;;;;
2021/12/27 02:14:40;;;;;;;;;1.00;1.00;;;;;11.41;77.32;99673.75;5048684;28;72908;-96
2021/12/27 02:17:53;;;;;;;;;1.67;1.33;;;;;11.16;77.44;99632.00;5041408;28;45547;-95
2021/12/27 02:24:13;;;;;;;;;;;;;;;;;;;;;
2021/12/27 02:27:07;;;;;;;;;2.00;1.00;;;;;11.18;77.79;99627.66;4955870;28;71530;-96
2021/12/27 02:33:15;;;;;;;;;1.33;0.67;;;;;11.20;78.03;99626.81;4899900;28;45814;-96
2021/12/27 02:39:26;;;;;;;;;;;;;;;;;;;;;
2021/12/27 02:42:12;;;;;;;;;1.00;1.00;;;;;11.18;78.31;99614.53;4898420;29;67896;-96
2021/12/27 02:45:08;;;;;;;;;1.67;1.67;;;;;11.44;78.28;99652.78;4915329;28;45439;-96
2021/12/27 02:47:54;;;;;;;;;;;;;;;;;;;;;
2021/12/27 02:50:54;;;;;;;;;4.00;2.00;;;;;11.46;77.90;99648.50;4955642;28;73026;-96
2021/12/27 02:53:47;;;;;;;;;;;;;;;;;;;;;
2021/12/27 02:59:52;;;;;;;;;;;;;;;;;;;;;
2021/12/27 03:02:55;;;;;;;;;;;;;;;;;;;;;
2021/12/27 03:05:47;;;;;;;;;;;;;;;;;;;;;
2021/12/27 03:08:26;;;;;;;;;3.33;1.00;;;;;11.42;77.86;99624.69;4974564;28;69305;-96
2021/12/27 03:14:23;;;;;;;;;2.00;2.00;;;;;11.40;77.35;99629.94;5027447;28;45464;-96
2021/12/27 03:17:02;;;;;;;;;5.00;2.00;;;;;11.28;77.56;99596.38;5017968;28;45512;-96
2021/12/27 03:22:50;;;;;;;;;;;;;;;;;;;;;
2021/12/27 03:25:52;;;;;;;;;2.33;2.33;;;;;11.20;77.44;99579.53;5031803;28;71424;-95
2021/12/27 03:28:31;;;;;;;;;3.33;2.00;;;;;11.18;77.84;99584.78;5017135;28;45563;-96
2021/12/27 03:31:36;;;;;;;;;4.33;3.00;;;;;11.12;77.90;99572.38;5018556;28;45318;-96
2021/12/27 03:34:41;;;;;;;;;2.67;2.00;;;;;11.23;78.19;99574.38;5033867;28;47187;-96
2021/12/27 03:37:50;;;;;;;;;3.33;3.33;;;;;11.38;77.59;99595.75;5031024;28;45564;-95
2021/12/27 03:40:43;;;;;;;;;4.67;4.00;;;;;11.29;77.65;99577.13;5019973;28;45534;-95
2021/12/27 03:43:31;;;;;;;;;2.67;2.67;;;;;11.25;78.04;99570.03;5017892;28;45669;-96
2021/12/27 03:53:13;;;;;;;;;7.00;4.67;;;;;11.33;77.62;99557.09;4965090;28;45610;-96
2021/12/27 04:06:09;;;;;;;;;3.00;3.00;;;;;11.22;77.49;99538.44;4796298;29;45461;-95
2021/12/27 04:09:21;;;;;;;;;4.67;3.33;;;;;11.19;77.26;99539.25;4804439;29;45277;-96
2021/12/27 04:18:37;;;;;;;;;6.33;5.00;;;;;11.33;77.09;99551.81;4747014;29;46314;-95
2021/12/27 04:24:11;;;;;;;;;5.67;3.00;;;;;11.36;77.62;99555.44;4750456;29;47075;-96
2021/12/27 04:26:55;;;;;;;;;4.33;3.00;;;;;11.28;77.11;99541.22;4749863;29;45663;-95
2021/12/27 04:33:05;;;;;;;;;;;;;;;;;;;;;
2021/12/27 04:38:42;;;;;;;;;8.00;3.67;;;;;11.36;77.45;99549.28;4767839;29;45304;-95
2021/12/27 04:41:26;;;;;;;;;4.33;3.67;;;;;11.49;77.31;99566.22;4770468;29;45531;-96
2021/12/27 04:44:00;;;;;;;;;3.67;3.67;;;;;11.26;77.23;99529.78;4782464;29;45472;-95
2021/12/27 04:46:59;;;;;;;;;;;;;;;;;;;;;
2021/12/27 04:49:19;;;;;;;;;4.00;3.00;;;;;11.48;77.94;99572.31;4843782;29;45347;-96
2021/12/27 04:52:16;;;;;;;;;8.67;4.33;;;;;11.32;78.02;99539.53;4897111;28;45557;-96
2021/12/27 04:55:11;;;;;;;;;;;;;;;;;;;;;
2021/12/27 04:58:43;;;;;;;;;5.00;5.00;;;;;11.36;77.39;99549.28;4925912;28;74216;-95
2021/12/27 05:01:15;;;;;;;;;6.00;5.00;;;;;11.36;77.37;99554.53;4939450;28;45496;-95
2021/12/27 05:11:11;;;;;;;;;;;;;;;;;;;;;
2021/12/27 05:14:21;;;;;;;;;;;;;;;;;;;;;
2021/12/27 05:20:44;;;;;;;;;;;;;;;;;;;;;
2021/12/27 05:24:03;;;;;;;;;;;;;;;;;;;;;
2021/12/27 05:27:40;;;;;;;;;;;;;;;;;;;;;
2021/12/27 05:45:06;;;;;;;;;4.00;4.00;;;;;11.31;77.44;99536.03;4696236;30;45861;-96
2021/12/27 05:48:23;;;;;;;;;4.33;4.00;;;;;11.24;77.50;99507.84;4731139;30;45743;-96
2021/12/27 05:51:21;;;;;;;;;6.67;4.00;;;;;11.34;77.01;99516.84;4732381;29;47727;-95
2021/12/27 05:54:13;;;;;;;;;5.00;3.67;;;;;11.15;76.70;99477.00;4713367;30;45604;-96
2021/12/27 05:57:11;;;;;;;;;;;;;;;;;;;;;
2021/12/27 06:03:46;;;;;;;;;4.00;2.67;;;;;11.09;76.60;99448.88;4821311;29;45605;-96
2021/12/27 06:09:17;;;;;;;;;;;;;;;;;;;;;
2021/12/27 06:12:13;;;;;;;;;5.00;4.00;;;;;11.27;77.35;99419.50;4975486;28;70411;-96
2021/12/27 06:16:13;;;;;;;;;;;;;;;;;;;;;
2021/12/27 06:22:17;;;;;;;;;;;;;;;;;;;;;
2021/12/27 06:25:15;;;;;;;;;;;;;;;;;;;;;
2021/12/27 06:31:14;;;;;;;;;;;;;;;;;;;;;
2021/12/27 06:34:26;;;;;;;;;8.00;6.33;;;;;11.17;77.06;99355.38;4936648;28;68214;-95
2021/12/27 06:37:31;;;;;;;;;11.33;7.67;;;;;11.24;76.96;99363.38;4925277;28;45431;-95
2021/12/27 06:40:30;;;;;;;;;;;;;;;;;;;;;
2021/12/27 06:42:59;;;;;;;;;8.67;6.67;;;;;11.15;76.89;99350.94;5004739;28;72561;-96
2021/12/27 06:45:47;;;;;;;;;7.33;6.33;;;;;11.00;76.48;99333.16;4983705;28;45616;-95
2021/12/27 06:51:29;;;;;;;;;;;;;;;;;;;;;
2021/12/27 06:54:34;;;;;;;;;;;;;;;;;;;;;
2021/12/27 06:57:17;;;;;;;;;8.33;8.33;;;;;10.81;76.14;99323.13;5079621;27;67587;-96
2021/12/27 06:59:48;;;;;;;;;8.00;5.00;;;;;10.74;76.04;99321.25;5059937;28;45593;-96
2021/12/27 07:02:51;;;;;;;;;;;;;;;;;;;;;
2021/12/27 07:05:22;;;;;;;;;3.33;3.33;;;;;10.79;75.80;99343.22;5097219;27;72498;-96
2021/12/27 07:08:18;;;;;;;;;9.33;9.33;;;;;10.81;76.75;99346.75;5064703;28;45451;-96
2021/12/27 07:10:43;;;;;;;;;9.33;8.00;;;;;10.60;76.85;99313.94;5076439;27;45607;-96
2021/12/27 07:13:32;;;;;;;;;10.67;7.33;;;;;10.69;76.32;99336.88;5073478;27;47214;-96
2021/12/27 07:16:05;;;;;;;;;8.33;7.33;;;;;10.83;76.60;99371.28;5083421;27;45426;-96
2021/12/27 07:18:43;;;;;;;;;8.00;8.00;;;;;10.57;76.60;99315.59;5063939;27;45407;-96
2021/12/27 07:21:09;;;;;;;;;8.00;5.00;;;;;10.50;76.97;99307.56;5080059;27;45611;-96
2021/12/27 07:23:44;;;;;;;;;9.00;7.67;;;;;10.75;76.64;99353.59;5075463;28;47259;-96
2021/12/27 07:26:28;;;;;;;;;8.00;8.00;;;;;10.49;76.71;99321.53;5077184;27;45405;-96
2021/12/27 07:30:08;;;;;;;;;;;;;;;;;;;;;
2021/12/27 07:34:01;;;;;;;;;;;;;;;;;;;;;
2021/12/27 07:36:31;;;;;;;;;13.67;10.67;;;;;10.70;77.57;99385.00;4877740;29;45639;-96
2021/12/27 07:39:18;;;;;;;;;6.67;6.67;;;;;10.50;77.44;99357.44;4920652;28;45803;-96
2021/12/27 07:42:05;;;;;;;;;10.00;9.00;;;;;10.64;77.89;99377.88;4919086;28;45450;-96
2021/12/27 07:44:50;;;;;;;;;6.33;6.33;;;;;10.45;78.36;99350.28;4912947;28;45401;-96
2021/12/27 07:47:15;;;;;;;;;7.67;7.67;;;;;10.53;78.44;99361.00;4902350;28;48146;-96
2021/12/27 07:49:41;;;;;;;;;9.67;8.00;;;;;10.57;78.19;99383.81;4895876;28;45775;-96
2021/12/27 07:52:07;;;;;;;;;8.33;8.33;;;;;10.49;78.06;99362.63;4903886;28;46083;-95
2021/12/27 07:54:33;;;;;;;;;9.00;8.33;;;;;10.45;78.43;99361.69;4891213;28;45312;-96
2021/12/27 07:57:00;;;;;;;;;7.00;5.00;;;;;10.43;78.28;99352.00;4924993;28;48081;-96
2021/12/27 07:59:27;;;;;;;;;8.67;8.33;;;;;10.36;78.25;99340.50;4905733;28;45417;-94
2021/12/27 08:01:53;;;;;;;;;4.67;4.00;;;;;10.39;78.37;99345.78;4901880;28;45455;-95
2021/12/27 08:04:18;;;;;;;;;8.00;7.00;;;;;10.45;78.69;99356.44;4908061;28;45570;-96
2021/12/27 08:06:44;;;;;;;;;5.33;5.33;;;;;10.41;78.45;99344.06;4958412;28;47038;-96
2021/12/27 08:09:09;;;;;;;;;6.00;6.00;;;;;10.49;78.17;99360.00;4984395;28;45705;-96
2021/12/27 08:11:35;;;;;;;;;11.00;8.00;;;;;10.42;78.15;99343.22;5029925;27;45370;-95
2021/12/27 08:14:03;;;;;;;;;6.33;6.33;;;;;10.51;77.79;99371.47;5081256;27;45587;-96
2021/12/27 08:16:28;;;;;;;;;4.00;4.00;;;;;10.36;77.97;99336.09;5069124;27;47302;-95
2021/12/27 08:18:55;;;;;;;;;9.00;9.00;;;;;10.53;78.37;99359.25;5071337;27;45485;-94
2021/12/27 08:21:22;;;;;;;;;11.00;10.33;;;;;10.46;78.35;99333.72;5062961;27;45574;-93
2021/12/27 08:23:48;;;;;;;;;8.00;7.00;;;;;10.39;77.76;99323.06;5078683;27;45445;-95
2021/12/27 08:26:14;;;;;;;;;8.67;5.00;;;;;10.43;77.67;99331.00;5073467;28;48490;-94
2021/12/27 08:28:44;;;;;;;;;8.33;6.00;;;;;10.51;78.14;99345.22;5074217;28;45571;-96
2021/12/27 08:31:10;;;;;;;;;7.33;4.00;;;;;10.37;77.35;99329.13;5070700;27;45391;-95
2021/12/27 08:33:36;;;;;;;;;3.00;2.67;;;;;10.34;77.89;99326.41;5062719;28;45488;-96
2021/12/27 08:36:02;;;;;;;;;5.00;4.00;;;;;10.34;77.35;99326.41;5079033;27;47321;-94
2021/12/27 08:38:29;;;;;;;;;8.67;6.67;;;;;10.29;77.94;99323.69;5082588;27;45366;-96
2021/12/27 08:40:55;;;;;;;;;9.67;9.00;;;;;10.34;77.86;99326.41;5085251;27;45508;-91
2021/12/27 08:43:20;;;;;;;;;4.33;4.33;;;;;10.44;77.98;99330.13;5093133;27;45429;-93
2021/12/27 08:45:45;;;;;;;;;3.33;3.33;;;;;10.49;77.47;99337.28;5062193;27;47298;-96
2021/12/27 08:48:11;;;;;;;;;3.33;3.33;;;;;10.41;77.71;99309.09;5088307;27;45511;-94
2021/12/27 08:50:37;;;;;;;;;4.67;3.33;;;;;10.39;77.96;99301.19;5075259;27;45411;-95
2021/12/27 08:53:05;;;;;;;;;6.00;5.33;;;;;10.57;77.62;99320.84;5077254;27;45579;-94
2021/12/27 08:55:37;;;;;;;;;5.33;5.00;;;;;10.46;77.08;99296.97;5072818;28;47659;-96
2021/12/27 08:58:04;;;;;;;;;2.33;2.33;;;;;10.47;77.33;99293.50;5091628;27;45941;-93
2021/12/27 09:00:30;;;;;;;;;4.67;4.67;;;;;10.50;77.10;99296.19;5091582;27;45462;-96
2021/12/27 09:02:55;;;;;;;;;4.00;4.00;;;;;10.56;76.57;99312.13;5072422;27;45296;-96
2021/12/27 09:05:21;;;;;;;;;6.67;5.33;;;;;10.64;77.69;99322.78;5075944;27;47210;-96
2021/12/27 09:07:46;;;;;;;;;3.00;3.00;;;;;10.56;77.91;99306.88;5071691;28;45891;-96
2021/12/27 09:10:13;;;;;;;;;4.67;4.00;;;;;10.73;77.37;99329.94;5067264;27;45310;-95
2021/12/27 09:12:40;;;;;;;;;5.33;5.33;;;;;10.48;77.02;99288.28;5071270;27;45549;-93
2021/12/27 09:15:10;;;;;;;;;4.00;4.00;;;;;10.54;77.55;99299.81;5058516;27;46957;-95
2021/12/27 09:17:36;;;;;;;;;9.00;5.00;;;;;10.70;77.57;99316.75;5072391;27;45506;-95
2021/12/27 09:20:03;;;;;;;;;9.00;8.00;;;;;10.78;76.96;99323.06;5073217;27;45336;-95
2021/12/27 09:22:29;;;;;;;;;5.67;4.33;;;;;10.84;77.32;99319.69;5080331;27;45566;-94
2021/12/27 09:24:54;;;;;;;;;6.67;3.00;;;;;10.83;76.90;99307.41;5063113;27;47944;-94
2021/12/27 09:27:19;;;;;;;;;5.33;5.33;;;;;10.87;76.97;99321.50;5072230;27;45662;-95
2021/12/27 09:29:45;;;;;;;;;4.33;4.00;;;;;10.87;77.39;99318.88;5069889;27;45681;-94
2021/12/27 09:32:12;;;;;;;;;5.00;5.00;;;;;10.91;77.15;99311.09;5078580;27;45406;-95
2021/12/27 09:34:38;;;;;;;;;7.33;6.67;;;;;10.97;77.24;99306.81;5074315;28;47058;-95
2021/12/27 09:37:04;;;;;;;;;5.00;3.00;;;;;10.98;76.79;99309.47;5078564;27;46007;-96
2021/12/27 09:39:30;;;;;;;;;4.33;4.33;;;;;10.98;76.30;99314.72;5080463;27;45550;-96
2021/12/27 09:41:55;;;;;;;;;4.00;4.00;;;;;10.94;76.66;99302.38;5081726;27;45400;-96
2021/12/27 09:44:21;;;;;;;;;6.33;5.00;;;;;11.00;76.46;99309.50;5096811;27;48578;-96
2021/12/27 09:46:46;;;;;;;;;4.00;4.00;;;;;11.01;76.68;99300.75;5092473;27;50367;-96
2021/12/27 09:49:14;;;;;;;;;5.33;3.00;;;;;10.98;76.05;99293.72;5082808;27;46303;-96
2021/12/27 09:51:40;;;;;;;;;2.00;2.00;;;;;11.01;76.68;99287.63;5060418;28;45428;-96
2021/12/27 09:54:07;;;;;;;;;5.67;4.00;;;;;11.02;76.91;99295.56;5079444;27;48138;-96
2021/12/27 09:56:32;;;;;;;;;7.67;7.67;;;;;11.10;77.21;99294.81;5081144;27;45370;-96
2021/12/27 09:58:58;;;;;;;;;5.00;4.00;;;;;11.09;76.73;99283.44;5078252;27;45558;-96
2021/12/27 10:01:24;;;;;;;;;6.33;5.00;;;;;11.12;76.57;99309.75;5070040;28;45512;-96
2021/12/27 10:03:56;;;;;;;;;3.00;3.00;;;;;11.13;76.76;99308.88;5072308;27;47953;-96
2021/12/27 10:06:24;;;;;;;;;7.00;4.67;;;;;11.06;76.66;99301.75;5077040;27;45439;-96
2021/12/27 10:08:53;;;;;;;;;4.33;4.33;;;;;11.04;76.40;99306.97;5072977;27;45374;-96
2021/12/27 10:11:29;;;;;;;;;8.33;5.33;;;;;11.04;76.01;99308.72;5082633;27;45424;-96
2021/12/27 10:14:08;;;;;;;;;8.33;8.33;;;;;10.99;76.34;99315.59;5081473;27;47283;-96
2021/12/27 10:16:53;;;;;;;;;11.33;9.33;;;;;10.99;76.74;99307.72;5081066;27;45254;-96
2021/12/27 10:19:21;;;;;;;;;11.00;9.67;;;;;10.99;76.40;99305.09;5085405;27;45055;-96
2021/12/27 10:21:49;;;;;;;;;7.67;7.67;;;;;10.97;77.10;99310.34;5079171;27;45142;-96
2021/12/27 10:24:27;;;;;;;;;5.00;5.00;;;;;10.98;76.03;99296.34;5087850;27;47335;-96
2021/12/27 10:26:54;;;;;;;;;4.00;2.33;;;;;10.95;75.64;99294.53;5088514;27;45922;-96
2021/12/27 10:29:23;;;;;;;;;7.67;7.33;;;;;10.98;76.18;99298.09;5086379;27;45376;-96
2021/12/27 10:32:06;;;;;;;;;5.00;5.00;;;;;11.01;76.88;99299.03;5074664;28;45602;-96
2021/12/27 10:34:40;;;;;;;;;6.00;4.33;;;;;11.01;75.64;99282.38;5067523;27;46516;-96
2021/12/27 10:37:14;;;;;;;;;5.00;5.00;;;;;11.01;76.75;99292.88;5088258;27;45206;-96
2021/12/27 10:40:01;;;;;;;;;4.67;4.00;;;;;11.04;76.50;99277.19;5074554;27;44808;-96
2021/12/27 10:42:28;;;;;;;;;3.67;3.67;;;;;11.04;76.79;99274.56;5074386;27;45281;-94
2021/12/27 10:44:57;;;;;;;;;5.00;5.00;;;;;11.10;76.02;99286.94;5102767;27;48200;-95
2021/12/27 10:47:44;;;;;;;;;4.00;4.00;;;;;11.08;76.41;99273.75;5075027;27;45743;-93
2021/12/27 10:50:14;;;;;;;;;4.00;3.67;;;;;11.12;76.78;99290.47;5095584;27;47966;-91
2021/12/27 10:52:48;;;;;;;;;3.00;3.00;;;;;11.09;76.87;99285.16;5069749;27;45826;-91
2021/12/27 10:55:16;;;;;;;;;2.67;2.67;;;;;11.14;75.64;99286.13;5063816;27;47320;-93
2021/12/27 10:57:42;;;;;;;;;7.67;3.00;;;;;11.06;76.27;99278.09;5062595;27;46511;-91
2021/12/27 11:00:30;;;;;;;;;3.00;3.00;;;;;11.06;76.45;99284.25;5067875;27;45436;-91
2021/12/27 11:02:58;;;;;;;;;3.33;3.00;;;;;11.11;76.36;99291.31;5071067;27;45427;-92
2021/12/27 11:05:26;;;;;;;;;3.00;3.00;;;;;11.15;77.25;99298.44;5080062;27;48447;-89
2021/12/27 11:07:53;;;;;;;;;5.00;4.00;;;;;11.20;77.36;99288.00;5085054;27;45514;-94
2021/12/27 11:10:20;;;;;;;;;5.00;4.00;;;;;11.23;76.96;99290.69;5072476;28;45447;-94
2021/12/27 11:12:47;;;;;;;;;3.00;2.00;;;;;11.25;76.70;99302.13;5061839;28;45385;-94
2021/12/27 11:15:13;;;;;;;;;2.67;1.33;;;;;11.24;76.03;99303.84;5063146;27;47595;-95
2021/12/27 11:17:39;;;;;;;;;2.00;2.00;;;;;11.25;75.55;99303.00;5075079;27;45377;-96
2021/12/27 11:20:08;;;;;;;;;2.00;2.00;;;;;11.26;76.40;99310.00;5080092;27;45780;-96
2021/12/27 11:22:36;;;;;;;;;4.00;3.00;;;;;11.22;76.35;99295.06;5083695;27;45534;-95
2021/12/27 11:25:07;;;;;;;;;3.00;3.00;;;;;11.25;76.49;99292.50;5073900;27;48379;-92
2021/12/27 11:27:36;;;;;;;;;3.00;1.67;;;;;11.37;75.99;99306.69;5063046;27;45478;-96
2021/12/27 11:30:12;;;;;;;;;1.00;1.00;;;;;11.36;75.77;99311.09;5057455;27;45346;-93
2021/12/27 11:33:12;;;;;;;;;3.67;3.00;;;;;11.24;76.21;99274.94;5070951;27;45635;-92
2021/12/27 11:35:59;;;;;;;;;5.33;5.33;;;;;11.42;76.59;99285.75;5075676;27;47323;-92
2021/12/27 11:38:34;;;;;;;;;3.67;3.00;;;;;11.66;76.41;99294.97;5076217;27;45337;-91
2021/12/27 11:41:02;;;;;;;;;4.00;3.33;;;;;11.76;76.69;99261.81;5092779;27;45431;-93
2021/12/27 11:43:47;;;;;;;;;4.67;3.00;;;;;12.05;76.16;99256.16;5076881;27;45516;-92
2021/12/27 11:46:13;;;;;;;;;6.33;6.33;;;;;12.23;75.97;99252.06;5072651;27;47278;-93
2021/12/27 11:49:04;;;;;;;;;3.00;3.00;;;;;12.54;75.49;99270.00;5074037;28;45634;-96
2021/12/27 11:51:39;;;;;;;;;25.00;23.00;;;;;12.66;75.47;99282.44;5078085;28;45551;-96
2021/12/27 11:54:37;;;;;;;;;10.67;9.67;;;;;12.58;74.91;99264.81;5083706;28;45508;-96
2021/12/27 11:57:03;;;;;;;;;11.67;10.33;;;;;12.39;74.60;99250.53;5082072;27;47388;-96
2021/12/27 11:59:36;;;;;;;;;3.00;3.00;;;;;12.33;73.78;99255.69;5089179;27;45840;-96
2021/12/27 12:02:24;;;;;;;;;4.33;2.67;;;;;12.52;74.57;99294.56;5075361;27;46091;-96
2021/12/27 12:04:54;;;;;;;;;3.67;3.67;;;;;12.51;75.42;99287.53;5103694;27;45329;-96
2021/12/27 12:07:34;;;;;;;;;3.33;3.33;;;;;12.80;74.59;99295.81;5086767;27;47283;-96
2021/12/27 12:10:03;;;;;;;;;4.67;4.67;;;;;12.95;75.05;99292.47;5058861;27;45535;-96
2021/12/27 12:15:33;;;;;;;;;6.00;6.00;;;;;12.97;74.33;99240.69;5741791;22;46007;-96
2021/12/27 12:23:07;;;;;;;;;5.00;5.00;;;;;12.87;73.78;99262.50;5078255;27;45058;-96
2021/12/27 12:25:34;;;;;;;;;4.67;3.67;;;;;12.85;73.97;99267.78;5060430;28;45066;-96
2021/12/27 12:28:06;;;;;;;;;2.00;2.00;;;;;12.94;73.60;99277.53;5069604;28;46434;-96
2021/12/27 12:30:39;;;;;;;;;2.00;2.00;;;;;12.90;73.92;99274.00;5056954;28;46152;-96
2021/12/27 12:33:05;;;;;;;;;5.00;4.00;;;;;13.10;74.00;99306.69;5054711;28;45564;-96
2021/12/27 12:35:44;;;;;;;;;3.33;3.33;;;;;13.24;74.12;99301.59;5044654;28;45673;-96
2021/12/27 12:38:14;;;;;;;;;3.67;2.67;;;;;13.19;73.51;99262.88;5059025;28;47518;-96
2021/12/27 12:40:42;;;;;;;;;3.67;3.67;;;;;13.47;73.79;99277.22;5096011;28;44749;-96
2021/12/27 12:43:07;;;;;;;;;4.00;4.00;;;;;13.66;74.25;99274.78;5065343;28;45432;-96
2021/12/27 12:45:34;;;;;;;;;5.00;3.00;;;;;13.77;73.26;99252.03;5046602;28;45502;-96
2021/12/27 12:48:00;;;;;;;;;6.33;5.00;;;;;14.06;71.79;99290.06;5069987;28;45694;-96
2021/12/27 12:50:26;;;;;;;;;3.00;3.00;;;;;14.15;72.38;99265.47;5067044;28;45434;-96
2021/12/27 12:52:53;;;;;;;;;3.00;3.00;;;;;14.29;71.89;99290.22;5057622;28;45459;-96
2021/12/27 12:55:21;;;;;;;;;4.33;4.00;;;;;14.19;71.54;99267.28;5077555;28;45464;-96
2021/12/27 12:57:48;;;;;;;;;4.33;4.33;;;;;14.41;71.46;99294.69;5063445;28;46757;-96
2021/12/27 13:00:20;;;;;;;;;4.67;4.67;;;;;14.50;70.74;99290.34;5055022;28;45505;-95
2021/12/27 13:02:45;;;;;;;;;2.33;2.33;;;;;14.67;71.39;99300.09;5054062;28;45393;-96
2021/12/27 13:05:15;;;;;;;;;13.33;10.00;;;;;14.88;70.21;99311.66;5053507;28;49442;-96
2021/12/27 13:07:47;;;;;;;;;6.33;6.33;;;;;14.97;69.52;99315.22;5069580;28;45332;-96
2021/12/27 13:10:22;;;;;;;;;5.00;3.67;;;;;14.93;70.66;99318.75;5038908;28;45620;-96
2021/12/27 13:12:48;;;;;;;;;8.33;5.00;;;;;14.92;70.17;99326.69;5052304;28;45687;-96
2021/12/27 13:15:19;;;;;;;;;4.67;2.00;;;;;14.88;70.04;99327.53;5058999;28;45238;-96
2021/12/27 13:18:19;;;;;;;;;4.67;4.33;;;;;14.83;68.99;99325.72;5059420;28;47141;-95
2021/12/27 13:20:50;;;;;;;;;4.00;4.00;;;;;14.82;70.47;99321.28;5037396;28;45230;-96
2021/12/27 13:23:21;;;;;;;;;4.33;3.67;;;;;14.83;69.25;99324.81;5063153;28;45394;-96
2021/12/27 13:26:01;;;;;;;;;6.00;5.67;;;;;14.82;68.47;99320.41;5048715;28;45709;-96
2021/12/27 13:28:34;;;;;;;;;4.00;4.00;;;;;14.86;68.57;99332.81;5051000;28;46368;-96
2021/12/27 13:31:04;;;;;;;;;4.67;2.67;;;;;14.91;67.72;99338.09;5038878;28;45368;-96
2021/12/27 13:33:45;;;;;;;;;8.33;4.67;;;;;14.84;68.99;99335.38;5058206;28;45499;-96
2021/12/27 13:36:12;;;;;;;;;4.67;4.67;;;;;14.77;68.98;99343.28;5057483;28;45395;-96
2021/12/27 13:38:41;;;;;;;;;4.67;3.00;;;;;14.71;69.09;99337.13;5057572;28;47308;-96
2021/12/27 13:41:20;;;;;;;;;6.33;5.00;;;;;14.61;69.46;99341.44;5048500;28;45587;-96
2021/12/27 13:43:57;;;;;;;;;6.00;3.67;;;;;14.53;68.50;99349.31;5040610;28;45295;-96
2021/12/27 13:46:29;;;;;;;;;4.00;3.00;;;;;14.39;68.64;99343.06;5050142;28;45450;-96
2021/12/27 13:48:55;;;;;;;;;6.00;3.33;;;;;14.43;69.36;99359.81;5054235;28;46742;-95
2021/12/27 13:51:24;;;;;;;;;5.00;3.00;;;;;14.34;67.68;99344.78;5060183;28;45389;-96
2021/12/27 13:54:00;;;;;;;;;8.67;5.00;;;;;14.26;68.80;99352.63;5058885;28;45365;-96
2021/12/27 13:56:29;;;;;;;;;5.00;3.67;;;;;14.14;69.27;99351.69;5045852;28;45226;-96
2021/12/27 13:58:55;;;;;;;;;4.00;3.00;;;;;14.11;68.18;99353.41;5060912;28;48344;-96
2021/12/27 14:01:22;;;;;;;;;4.67;4.33;;;;;14.07;68.63;99349.88;5078954;28;45834;-96
2021/12/27 14:03:50;;;;;;;;;6.00;5.00;;;;;14.02;69.55;99341.03;5052376;28;45574;-96
2021/12/27 14:06:18;;;;;;;;;8.00;4.00;;;;;14.01;69.31;99333.97;5041058;28;45712;-96
2021/12/27 14:08:58;;;;;;;;;6.33;6.00;;;;;14.15;69.60;99344.63;5055600;28;46245;-96
2021/12/27 14:11:24;;;;;;;;;5.00;3.67;;;;;14.28;70.13;99346.50;5055082;28;45428;-96
2021/12/27 14:14:02;;;;;;;;;8.67;3.00;;;;;14.26;69.08;99342.97;5063836;28;45502;-95
2021/12/27 14:16:29;;;;;;;;;7.67;5.00;;;;;14.24;69.24;99350.00;5040373;28;45534;-96
2021/12/27 14:19:08;;;;;;;;;6.67;5.33;;;;;14.13;69.20;99344.63;5074255;28;45378;-95
2021/12/27 14:21:53;;;;;;;;;4.33;3.00;;;;;14.10;69.03;99344.59;5057074;28;45845;-94
2021/12/27 14:24:49;;;;;;;;;8.67;5.33;;;;;14.04;69.06;99357.75;5054525;28;45510;-94
2021/12/27 14:27:14;;;;;;;;;6.00;5.67;;;;;13.98;69.26;99355.06;5059662;28;45315;-92
2021/12/27 14:29:40;;;;;;;;;4.67;3.67;;;;;13.87;69.47;99353.19;5055596;28;47856;-95
2021/12/27 14:32:07;;;;;;;;;8.33;3.00;;;;;13.79;69.71;99354.88;5052020;28;45310;-96
2021/12/27 14:34:41;;;;;;;;;7.00;3.67;;;;;13.70;69.81;99369.75;5058078;28;45425;-93
2021/12/27 14:37:08;;;;;;;;;7.67;3.00;;;;;13.58;69.41;99359.94;5066379;28;45405;-93
2021/12/27 14:39:37;;;;;;;;;8.33;6.67;;;;;13.47;69.44;99357.19;5049225;28;47035;-96
2021/12/27 14:42:03;;;;;;;;;7.33;3.33;;;;;13.46;69.96;99367.69;5070782;28;45438;-96
2021/12/27 14:44:29;;;;;;;;;10.00;5.00;;;;;13.38;70.28;99352.69;5081858;28;45326;-96
2021/12/27 14:46:54;;;;;;;;;5.00;5.00;;;;;13.28;70.33;99341.16;5124342;22;45287;-92
2021/12/27 14:49:21;;;;;;;;;10.67;5.33;;;;;13.34;71.05;99357.91;5067579;28;45408;-96
2021/12/27 14:51:47;;;;;;;;;11.00;5.00;;;;;13.28;70.99;99353.44;5045257;28;45384;-95
2021/12/27 14:54:12;;;;;;;;;7.00;3.33;;;;;13.30;71.19;99363.13;5051077;28;45472;-93
2021/12/27 14:56:37;;;;;;;;;7.67;6.00;;;;;13.29;70.56;99355.22;5065469;28;45403;-95
2021/12/27 14:59:03;;;;;;;;;8.00;5.33;;;;;13.30;70.96;99351.69;5054851;28;47164;-96
2021/12/27 15:01:28;;;;;;;;;8.00;4.00;;;;;13.27;71.01;99349.91;5062718;28;45382;-96
2021/12/27 15:03:56;;;;;;;;;6.00;4.00;;;;;13.28;70.57;99335.00;5057037;27;45344;-95
2021/12/27 15:08:55;;;;;;;;;7.67;4.00;;;;;13.26;70.90;99334.09;5046526;28;46145;-93
2021/12/27 15:11:20;;;;;;;;;4.00;4.00;;;;;13.44;71.01;99361.53;5049291;28;45429;-93
2021/12/27 15:13:46;;;;;;;;;9.67;6.00;;;;;13.47;70.30;99351.91;5028330;28;45516;-93
2021/12/27 15:16:11;;;;;;;;;11.33;6.00;;;;;13.49;70.20;99362.47;5027773;28;45549;-92
2021/12/27 15:18:38;;;;;;;;;7.00;5.00;;;;;13.44;70.44;99369.44;5048035;28;45976;-93
2021/12/27 15:21:03;;;;;;;;;8.00;5.33;;;;;13.31;69.25;99369.28;5023739;28;45499;-93
2021/12/27 15:23:30;;;;;;;;;9.33;6.00;;;;;13.27;69.98;99385.94;5032191;28;45384;-94
2021/12/27 15:25:56;;;;;;;;;8.00;7.00;;;;;13.20;69.45;99387.59;5050658;28;45371;-93
2021/12/27 15:28:21;;;;;;;;;6.67;4.00;;;;;13.11;70.19;99383.13;5047650;28;45433;-93
2021/12/27 15:30:46;;;;;;;;;10.33;5.33;;;;;13.03;70.08;99387.38;5021477;28;45290;-92
2021/12/27 15:33:12;;;;;;;;;5.67;3.67;;;;;13.03;70.53;99392.66;5056722;28;45327;-96
2021/12/27 15:35:37;;;;;;;;;11.00;5.00;;;;;13.00;69.19;99404.03;5058943;28;45683;-96
2021/12/27 15:38:02;;;;;;;;;10.00;4.33;;;;;12.93;70.25;99400.44;5044474;28;47294;-96
2021/12/27 15:40:28;;;;;;;;;11.00;6.67;;;;;12.88;69.76;99395.97;5031013;28;45481;-93
2021/12/27 15:42:55;;;;;;;;;12.67;7.67;;;;;12.86;70.93;99406.47;5029363;28;45363;-94
2021/12/27 15:45:23;;;;;;;;;11.33;6.00;;;;;12.76;70.45;99394.03;5046338;28;45634;-94
2021/12/27 15:58:09;;;;;;;;;14.33;12.00;;;;;12.41;71.37;99375.09;5412088;22;46286;-96
2021/12/27 16:44:33;;;;;;;;;8.00;4.67;;;;;12.06;71.88;99421.84;5163022;22;46546;-96
2021/12/27 16:46:58;;;;;;;;;5.00;4.00;;;;;12.11;71.89;99434.22;5057331;28;45429;-96
2021/12/27 16:49:23;;;;;;;;;8.67;6.67;;;;;12.13;72.42;99443.94;5049327;28;47417;-96
2021/12/27 16:51:49;;;;;;;;;11.33;7.67;;;;;12.14;72.38;99450.97;5041855;28;45502;-95
2021/12/27 16:54:15;;;;;;;;;19.67;10.33;;;;;12.12;72.63;99450.03;5054836;28;45789;-96
2021/12/27 16:56:40;;;;;;;;;6.67;6.00;;;;;12.11;72.58;99447.38;5075471;28;45605;-96
2021/12/27 16:59:06;;;;;;;;;11.33;7.00;;;;;12.12;72.57;99443.88;5046341;28;45471;-96